Time;durP1;ratioP1;P1;durP2;ratioP2;P2;SDS_P1;SDS_P2;PMS_P1;PMS_P2;Temp;Humidity;BMP_temperature;BMP_pressure;BME280_temperature;BME280_humidity;BME280_pressure;Samples;Min_cycle;Max_cycle;Signal;HPM_P1;HPM_P2
2022/09/26 04:44:48;;;;;;;33.47;14.73;;;;;;;11.04;100.00;95577.44;4966363;28;20082;-80
2022/09/26 05:45:02;;;;;;;30.63;14.95;;;;;;;11.43;98.53;95564.25;4979999;28;20049;-80
2022/09/26 07:57:11;;;;;;;21.67;6.55;;;;;;;11.60;88.53;95557.78;4994260;28;20053;-87
2022/09/26 08:03:00;;;;;;;19.80;6.53;;;;;;;11.69;88.84;95559.25;5018868;28;20546;-82
2022/09/26 08:05:31;;;;;;;29.92;6.85;;;;;;;11.75;88.74;95563.31;5025614;28;20080;-82
2022/09/26 08:08:03;;;;;;;17.50;6.35;;;;;;;11.65;86.81;95561.06;5017298;28;20460;-82
2022/09/26 08:10:31;;;;;;;24.33;7.28;;;;;;;11.58;87.51;95565.50;5034353;28;20046;-81
2022/09/26 08:13:00;;;;;;;22.17;6.75;;;;;;;11.57;87.74;95561.19;5032863;28;20038;-81
2022/09/26 08:15:29;;;;;;;19.55;7.15;;;;;;;11.59;87.55;95561.63;5034342;28;20042;-82
2022/09/26 08:18:00;;;;;;;24.30;8.13;;;;;;;11.64;87.72;95555.94;5036886;28;20097;-82
2022/09/26 08:20:27;;;;;;;22.33;9.07;;;;;;;11.71;88.71;95554.25;5036886;28;20048;-81
2022/09/26 08:22:57;;;;;;;15.80;8.23;;;;;;;11.83;89.35;95560.81;5020182;28;20049;-82
2022/09/26 08:25:24;;;;;;;17.30;8.68;;;;;;;11.81;89.23;95565.81;5037038;28;20041;-82
2022/09/26 08:27:58;;;;;;;18.33;8.98;;;;;;;11.45;88.51;95570.19;5035697;28;20038;-82
2022/09/26 08:33:34;;;;;;;20.52;9.05;;;;;;;11.74;91.64;95553.56;5033515;28;20073;-81
2022/09/26 08:36:05;;;;;;;17.58;8.45;;;;;;;11.92;91.27;95548.66;5037143;28;20092;-82
2022/09/26 08:38:32;;;;;;;13.77;6.60;;;;;;;11.98;83.78;95560.91;5036033;28;20054;-82
2022/09/26 08:41:07;;;;;;;14.57;7.15;;;;;;;11.95;86.64;95560.78;5036103;28;20033;-81
2022/09/26 08:43:46;;;;;;;12.02;6.50;;;;;;;12.12;86.05;95555.06;5034993;28;20042;-82
2022/09/26 08:49:39;;;;;;;11.00;5.43;;;;;;;12.38;83.19;95551.88;5037339;28;20032;-82
2022/09/26 08:52:20;;;;;;;11.48;6.15;;;;;;;12.41;83.95;95551.16;5019070;28;20061;-82
2022/09/26 08:54:48;;;;;;;14.82;6.22;;;;;;;12.33;80.86;95556.81;5037167;28;20033;-81
2022/09/26 09:00:33;;;;;;;18.48;6.90;;;;;;;12.19;84.19;95549.00;5156905;27;1286776;-82
2022/09/26 09:03:11;;;;;;;18.25;6.18;;;;;;;12.16;85.15;95536.84;5176198;27;20043;-81
2022/09/26 09:05:42;;;;;;;19.13;6.95;;;;;;;12.21;82.92;95542.03;5175417;27;20468;-81
2022/09/26 09:08:16;;;;;;;18.55;6.57;;;;;;;12.47;83.35;95543.50;5175925;27;20081;-81
2022/09/26 09:10:46;;;;;;;15.05;5.97;;;;;;;12.60;82.90;95536.84;5174260;27;20046;-80
2022/09/26 09:13:45;;;;;;;14.00;4.63;;;;;;;12.37;79.21;95538.56;5175449;27;20054;-81
2022/09/26 09:16:23;;;;;;;14.73;5.50;;;;;;;12.54;80.60;95528.13;5173381;27;20046;-79
2022/09/26 09:18:58;;;;;;;23.08;15.43;;;;;;;12.53;82.14;95533.94;5175418;27;20443;-81
2022/09/26 09:21:34;;;;;;;16.92;6.25;;;;;;;12.57;82.78;95521.16;5166127;27;20047;-86
2022/09/26 09:24:16;;;;;;;7.78;4.13;;;;;;;12.72;77.92;95512.19;5164875;22;20068;-82
2022/09/26 09:26:55;;;;;;;16.42;4.80;;;;;;;12.58;77.96;95521.94;5095617;28;20100;-83
2022/09/26 09:35:20;;;;;;;25.05;4.63;;;;;;;13.06;77.93;95502.47;5077896;28;20041;-81
2022/09/26 09:37:50;;;;;;;17.95;5.25;;;;;;;13.16;76.03;95503.88;5082458;28;20045;-81
2022/09/26 09:42:51;;;;;;;25.40;4.60;;;;;;;13.28;74.37;95500.28;5070552;28;20546;-79
2022/09/26 09:45:23;;;;;;;16.83;4.03;;;;;;;13.15;75.13;95496.03;5074226;28;20052;-78
2022/09/26 09:47:50;;;;;;;23.33;3.88;;;;;;;13.42;74.67;95500.59;5070305;28;20052;-79
2022/09/26 09:50:31;;;;;;;27.50;4.22;;;;;;;13.64;70.35;95499.13;5073175;28;20047;-77
2022/09/26 09:53:11;;;;;;;20.95;4.18;;;;;;;13.59;70.73;95493.94;5075807;28;20484;-83
2022/09/26 09:55:47;;;;;;;32.92;4.65;;;;;;;13.67;73.45;95489.41;5067821;28;20052;-79
2022/09/26 09:58:35;;;;;;;26.90;5.28;;;;;;;13.71;71.04;95491.06;5073829;28;20049;-82
2022/09/26 10:01:08;;;;;;;27.65;4.78;;;;;;;13.95;71.29;95489.22;5068750;28;20041;-79
2022/09/26 10:03:44;;;;;;;17.08;3.83;;;;;;;14.17;71.93;95491.19;5072760;28;20068;-83
2022/09/26 10:06:13;;;;;;;36.33;4.90;;;;;;;14.25;69.48;95490.19;5050460;28;20445;-79
2022/09/26 10:08:41;;;;;;;34.13;4.63;;;;;;;14.00;70.59;95484.22;5051505;28;20053;-79
2022/09/26 10:11:21;;;;;;;26.52;4.43;;;;;;;13.86;70.00;95492.16;5048974;28;20062;-80
2022/09/26 10:13:51;;;;;;;14.65;3.97;;;;;;;13.90;70.87;95492.22;5074420;28;20484;-80
2022/09/26 10:16:18;;;;;;;22.95;3.75;;;;;;;13.83;71.92;95474.53;5058226;28;20049;-79
2022/09/26 10:19:08;;;;;;;22.75;4.32;;;;;;;13.62;72.04;95476.78;5057412;28;20496;-79
2022/09/26 10:21:39;;;;;;;13.18;3.58;;;;;;;13.43;72.63;95480.31;5069280;22;20384;-79
2022/09/26 10:24:21;;;;;;;23.42;4.13;;;;;;;13.64;76.10;95474.50;5080681;28;20048;-80
2022/09/26 10:26:49;;;;;;;14.95;3.78;;;;;;;13.79;74.06;95467.38;5078229;28;20048;-78
2022/09/26 10:29:24;;;;;;;23.98;4.60;;;;;;;13.96;72.83;95468.88;5076760;28;20052;-78
2022/09/26 10:31:55;;;;;;;25.30;4.20;;;;;;;14.25;71.91;95470.22;5075536;28;20052;-78
2022/09/26 10:34:24;;;;;;;22.83;3.67;;;;;;;14.41;71.29;95467.38;5077581;28;20051;-79
2022/09/26 10:36:52;;;;;;;21.88;3.33;;;;;;;14.49;70.56;95469.13;5078718;28;20055;-78
2022/09/26 10:42:15;;;;;;;10.52;3.10;;;;;;;13.98;69.10;95475.56;5061276;28;20095;-83
2022/09/26 10:44:41;;;;;;;28.65;3.88;;;;;;;13.97;68.85;95465.00;5059312;28;20540;-79
2022/09/26 10:47:17;;;;;;;16.10;3.35;;;;;;;13.76;68.26;95477.09;5057581;28;20041;-79
2022/09/26 10:49:49;;;;;;;11.82;3.70;;;;;;;13.62;70.48;95474.06;5073860;28;20061;-89
2022/09/26 10:52:23;;;;;;;8.43;2.47;;;;;;;13.64;69.43;95469.03;5200835;22;20067;-82
2022/09/26 10:55:02;;;;;;;8.45;2.70;;;;;;;13.54;69.71;95464.13;5062853;28;20025;-82
2022/09/26 10:57:51;;;;;;;9.40;2.65;;;;;;;13.42;70.02;95461.53;5063660;28;20048;-83
2022/09/26 11:00:37;;;;;;;15.85;3.15;;;;;;;13.28;72.06;95457.31;5079411;28;20036;-82
2022/09/26 11:03:10;;;;;;;8.27;2.58;;;;;;;13.48;69.81;95455.41;5062904;28;20045;-82
2022/09/26 11:05:59;;;;;;;7.97;2.17;;;;;;;13.42;69.37;95450.59;5080037;28;20092;-83
2022/09/26 11:08:44;;;;;;;16.10;3.08;;;;;;;13.55;69.39;95454.75;5061660;28;20053;-82
2022/09/26 11:11:20;;;;;;;8.35;2.58;;;;;;;13.62;70.87;95449.44;5060001;28;20034;-83
2022/09/26 11:14:31;;;;;;;7.95;2.80;;;;;;;13.50;75.04;95452.31;5042925;28;20047;-83
2022/09/26 11:16:59;;;;;;;16.73;3.92;;;;;;;13.28;74.83;95449.13;5038371;28;20038;-81
2022/09/26 11:19:35;;;;;;;6.50;2.63;;;;;;;13.34;75.10;95454.31;5039248;28;20038;-83
2022/09/26 11:22:13;;;;;;;5.97;2.45;;;;;;;13.28;76.30;95451.84;5041094;28;20041;-82
2022/09/26 11:24:46;;;;;;;7.90;2.80;;;;;;;13.28;75.73;95456.53;5059697;28;20057;-82
2022/09/26 11:27:23;;;;;;;8.38;2.80;;;;;;;13.22;75.11;95456.03;5058863;28;20091;-83
2022/09/26 11:29:55;;;;;;;7.55;2.83;;;;;;;13.13;74.98;95455.38;5059589;28;20037;-83
2022/09/26 11:32:28;;;;;;;10.18;3.00;;;;;;;13.06;77.46;95444.31;5026438;28;20049;-84
2022/09/26 11:35:01;;;;;;;9.35;2.90;;;;;;;13.00;78.17;95434.78;5059495;28;20037;-82
2022/09/26 11:38:09;;;;;;;6.40;2.90;;;;;;;13.00;80.61;95432.06;5059660;28;20033;-82
2022/09/26 11:41:03;;;;;;;8.18;3.38;;;;;;;12.80;84.15;95426.53;5049678;28;20041;-84
2022/09/26 11:43:43;;;;;;;5.82;3.45;;;;;;;12.80;85.71;95415.59;5059288;28;20056;-83
2022/09/26 11:46:29;;;;;;;10.27;4.03;;;;;;;12.95;85.04;95415.94;5059492;28;20045;-81
2022/09/26 11:49:21;;;;;;;9.20;3.03;;;;;;;12.98;81.66;95404.28;5042583;28;20030;-83
2022/09/26 11:52:04;;;;;;;7.38;3.30;;;;;;;13.01;81.38;95403.59;5042120;28;20037;-82
2022/09/26 11:54:48;;;;;;;11.40;3.65;;;;;;;12.68;84.20;95410.22;5035945;28;20081;-83
2022/09/26 11:57:33;;;;;;;8.68;3.72;;;;;;;12.93;83.79;95396.34;5039440;28;20064;-83
2022/09/26 12:00:10;;;;;;;9.68;3.58;;;;;;;13.30;83.67;95399.53;5039527;28;20056;-82
2022/09/26 12:02:54;;;;;;;5.90;3.30;;;;;;;13.39;82.81;95391.13;5044263;28;20049;-83
2022/09/26 12:05:30;;;;;;;8.75;3.65;;;;;;;13.48;81.74;95389.00;5042804;28;20030;-82
2022/09/26 12:08:20;;;;;;;7.22;3.08;;;;;;;13.38;82.46;95384.88;5039009;28;20040;-84
2022/09/26 12:11:03;;;;;;;9.00;3.15;;;;;;;13.41;79.41;95384.13;5022641;28;20030;-84
2022/09/26 12:13:40;;;;;;;12.45;3.28;;;;;;;13.55;79.28;95378.97;5022648;28;20069;-83
2022/09/26 12:16:14;;;;;;;7.78;2.95;;;;;;;13.48;79.80;95372.56;5039570;28;20049;-83
2022/09/26 12:18:54;;;;;;;8.68;3.08;;;;;;;13.69;79.34;95372.22;5006125;28;20057;-83
2022/09/26 12:21:28;;;;;;;10.32;3.38;;;;;;;13.61;79.08;95371.25;5059015;28;20049;-83
2022/09/26 12:24:04;;;;;;;6.78;2.83;;;;;;;13.62;81.61;95367.38;5058825;28;20053;-82
2022/09/26 12:26:41;;;;;;;7.68;2.80;;;;;;;13.69;80.73;95362.06;5058940;28;20029;-84
2022/09/26 12:29:31;;;;;;;5.72;1.90;;;;;;;13.63;76.19;95352.56;5058752;28;20045;-84
2022/09/26 12:32:23;;;;;;;6.25;1.73;;;;;;;13.55;74.26;95345.34;5058911;28;20061;-84
2022/09/26 12:35:03;;;;;;;2.20;1.10;;;;;;;13.72;75.34;95350.38;5058726;28;20034;-84
2022/09/26 12:37:57;;;;;;;7.07;1.33;;;;;;;13.82;69.03;95343.50;5058736;28;20030;-83
2022/09/26 12:40:34;;;;;;;7.47;1.63;;;;;;;14.07;68.60;95339.28;5041817;28;20058;-83
2022/09/26 12:43:26;;;;;;;6.60;1.48;;;;;;;14.47;67.73;95339.94;5044420;28;20033;-82
2022/09/26 12:46:41;;;;;;;7.20;1.65;;;;;;;14.80;66.99;95336.53;5038633;28;20045;-84
2022/09/26 12:49:26;;;;;;;6.60;1.70;;;;;;;14.55;63.32;95341.66;5038482;28;20038;-83
2022/09/26 12:51:58;;;;;;;6.60;1.52;;;;;;;14.57;65.82;95333.88;5020720;28;20037;-82
2022/09/26 12:54:53;;;;;;;7.55;1.65;;;;;;;14.34;63.45;95331.13;5037524;28;20069;-83
2022/09/26 12:57:39;;;;;;;9.38;1.55;;;;;;;14.10;65.21;95337.78;5037482;28;20048;-82
2022/09/26 13:00:23;;;;;;;7.35;1.90;;;;;;;14.07;66.05;95330.28;5037856;28;20042;-83
2022/09/26 13:03:20;;;;;;;5.68;1.65;;;;;;;13.98;67.85;95335.19;5038330;28;20037;-84
2022/09/26 13:06:43;;;;;;;7.05;1.58;;;;;;;13.91;67.31;95330.41;5037351;28;20045;-83
2022/09/26 13:12:37;;;;;;;11.40;2.20;;;;;;;13.91;68.93;95329.59;4938642;29;20099;-83
2022/09/26 13:15:22;;;;;;;10.82;2.83;;;;;;;13.78;66.20;95323.50;4938424;29;20032;-83
2022/09/26 13:17:56;;;;;;;10.55;2.33;;;;;;;13.65;69.37;95303.75;4938516;29;20028;-82
2022/09/26 13:20:52;;;;;;;7.85;2.35;;;;;;;13.69;70.29;95307.34;4937662;29;20139;-82
2022/09/26 13:23:27;;;;;;;6.68;2.08;;;;;;;13.82;70.30;95300.53;4937930;29;20076;-81
2022/09/26 13:25:58;;;;;;;4.05;1.83;;;;;;;13.78;70.54;95294.22;4937887;29;20044;-82
2022/09/26 13:28:33;;;;;;;9.20;2.25;;;;;;;13.94;72.36;95287.81;4937663;29;20062;-82
2022/09/26 13:31:05;;;;;;;6.97;2.17;;;;;;;13.98;67.91;95277.72;4936265;29;20116;-82
2022/09/26 13:33:50;;;;;;;7.43;2.20;;;;;;;14.26;70.65;95275.44;4930871;29;20603;-82
2022/09/26 13:36:21;;;;;;;4.88;1.95;;;;;;;14.54;68.34;95272.38;4933176;29;20044;-81
2022/09/26 13:39:04;;;;;;;7.68;2.20;;;;;;;14.72;68.08;95275.38;4923032;29;20056;-84
2022/09/26 13:45:08;;;;;;;5.07;1.60;;;;;;;14.85;62.89;95271.22;4920950;29;20052;-82
2022/09/26 13:48:33;;;;;;;10.60;1.88;;;;;;;15.23;65.65;95263.06;5048791;23;20046;-84
2022/09/26 13:53:43;;;;;;;9.48;1.77;;;;;;;15.56;62.84;95256.78;5769970;22;20052;-81
2022/09/26 13:56:47;;;;;;;6.20;1.63;;;;;;;15.58;61.39;95255.22;5046834;28;20049;-86
2022/09/26 13:59:33;;;;;;;8.73;2.10;;;;;;;15.43;57.88;95247.22;5047244;28;20072;-80
2022/09/26 14:02:17;;;;;;;7.63;1.83;;;;;;;15.64;60.65;95247.47;5053200;28;20496;-81
2022/09/26 14:04:46;;;;;;;5.05;1.70;;;;;;;15.75;59.01;95237.38;5049149;28;20480;-82
2022/09/26 14:10:21;;;;;;;4.95;1.55;;;;;;;15.99;58.24;95227.00;5071246;28;20059;-82
2022/09/26 14:13:04;;;;;;;3.15;1.50;;;;;;;16.01;60.00;95232.91;5049189;28;20045;-83
2022/09/26 14:18:33;;;;;;;23.65;2.85;;;;;;;16.01;57.65;95241.13;5384552;23;20055;-81
2022/09/26 14:24:12;;;;;;;25.02;3.15;;;;;;;16.03;55.82;95227.84;5616214;22;20061;-81
2022/09/26 14:26:44;;;;;;;8.20;1.80;;;;;;;15.51;55.81;95221.47;5107794;22;20096;-82
2022/09/26 14:29:30;;;;;;;7.60;2.03;;;;;;;15.26;56.50;95219.25;5100915;28;20048;-83
2022/09/26 14:32:00;;;;;;;4.13;1.80;;;;;;;15.70;58.27;95215.78;5101287;28;20132;-83
2022/09/26 14:34:32;;;;;;;7.82;1.98;;;;;;;15.62;57.05;95205.88;5101063;28;20092;-83
2022/09/26 14:37:03;;;;;;;2.97;1.70;;;;;;;16.04;56.84;95199.19;5101119;28;20111;-83
2022/09/26 14:39:40;;;;;;;6.03;1.55;;;;;;;16.20;55.69;95207.16;5083498;28;20055;-83
2022/09/26 14:42:14;;;;;;;4.97;1.83;;;;;;;16.17;54.78;95201.25;5100801;28;20040;-83
2022/09/26 14:44:51;;;;;;;4.88;1.50;;;;;;;16.42;56.58;95198.66;5084155;28;20044;-83
2022/09/26 14:47:18;;;;;;;5.05;1.70;;;;;;;16.61;55.67;95191.31;5101008;28;20083;-83
2022/09/26 14:49:53;;;;;;;17.38;2.40;;;;;;;16.29;52.24;95200.16;5100818;28;20044;-84
2022/09/26 14:52:21;;;;;;;7.88;1.80;;;;;;;16.22;53.85;95186.38;5101168;28;20032;-83
2022/09/26 14:54:48;;;;;;;5.47;1.65;;;;;;;16.58;55.57;95187.38;5083777;28;20028;-83
2022/09/26 14:57:26;;;;;;;3.25;1.67;;;;;;;16.52;57.06;95188.91;5083604;28;20033;-83
2022/09/26 14:59:54;;;;;;;3.38;1.83;;;;;;;16.43;52.05;95178.25;5100802;28;20028;-82
2022/09/26 15:02:30;;;;;;;5.80;1.80;;;;;;;16.37;52.08;95182.53;5083680;28;20112;-83
2022/09/26 15:05:04;;;;;;;10.55;2.08;;;;;;;16.14;53.13;95173.78;5090965;22;20045;-78
2022/09/26 15:07:35;;;;;;;26.30;3.17;;;;;;;16.44;54.93;95179.84;5080646;28;20480;-77
2022/09/26 15:10:09;;;;;;;19.35;2.67;;;;;;;16.03;51.99;95172.91;5076026;28;20052;-76
2022/09/26 15:12:44;;;;;;;15.88;2.58;;;;;;;16.15;53.92;95167.91;5076137;28;20067;-79
2022/09/26 15:15:27;;;;;;;8.65;1.77;;;;;;;16.51;55.42;95167.31;5080472;28;20458;-82
2022/09/26 15:18:00;;;;;;;4.72;1.73;;;;;;;16.81;55.61;95167.88;5086346;28;20049;-79
2022/09/26 15:20:30;;;;;;;10.27;1.98;;;;;;;17.12;54.93;95162.84;5079555;28;20044;-79
2022/09/26 15:23:01;;;;;;;5.50;1.48;;;;;;;17.24;53.37;95157.00;5062109;28;20053;-80
2022/09/26 15:25:33;;;;;;;12.02;2.20;;;;;;;17.35;52.08;95155.06;5084828;28;20071;-82
2022/09/26 15:28:11;;;;;;;12.38;2.65;;;;;;;17.25;53.61;95149.53;5083258;28;20434;-84
2022/09/26 15:30:40;;;;;;;21.35;2.70;;;;;;;17.36;53.25;95150.34;5089054;28;20044;-86
2022/09/26 15:33:16;;;;;;;6.45;1.88;;;;;;;17.40;53.28;95151.94;5084345;23;20079;-78
2022/09/26 15:35:52;;;;;;;11.10;2.15;;;;;;;17.35;51.75;95157.03;5081925;28;20032;-79
2022/09/26 15:38:19;;;;;;;15.13;2.35;;;;;;;16.73;51.12;95147.03;5075556;28;20058;-81
2022/09/26 15:41:00;;;;;;;6.20;2.03;;;;;;;16.58;51.86;95151.63;5077113;28;20048;-80
2022/09/26 15:43:33;;;;;;;11.77;2.50;;;;;;;16.27;53.91;95142.06;5080758;28;20201;-79
2022/09/26 15:46:00;;;;;;;14.98;2.75;;;;;;;16.29;55.52;95145.22;5077980;28;20052;-78
2022/09/26 15:48:31;;;;;;;12.65;2.33;;;;;;;15.98;54.24;95137.59;5077373;28;20066;-80
2022/09/26 15:51:04;;;;;;;12.43;2.40;;;;;;;16.05;54.71;95145.84;5076803;28;20070;-80
2022/09/26 15:53:35;;;;;;;;;;;;;;;15.83;54.98;95148.47;5075841;28;20053;-79
2022/09/26 15:56:05;;;;;;;16.05;2.75;;;;;;;15.69;56.15;95140.09;5062811;28;19921;-78
2022/09/26 15:58:36;;;;;;;20.13;2.90;;;;;;;15.42;57.60;95149.66;5054216;28;20420;-77
2022/09/26 16:01:03;;;;;;;11.77;2.20;;;;;;;15.43;58.33;95148.47;5052819;28;20056;-76
2022/09/26 16:03:39;;;;;;;22.40;2.97;;;;;;;15.39;60.48;95151.97;5053209;28;20059;-75
2022/09/26 16:06:15;;;;;;;23.10;3.35;;;;;;;15.29;61.95;95149.13;5061223;28;20053;-76
2022/09/26 16:08:42;;;;;;;17.92;3.03;;;;;;;15.17;61.46;95146.66;5051750;28;20053;-76
2022/09/26 16:11:09;;;;;;;15.00;2.50;;;;;;;15.15;61.60;95149.78;5052046;28;20045;-76
2022/09/26 16:13:45;;;;;;;8.57;1.83;;;;;;;15.15;63.86;95152.53;5054877;28;20060;-75
2022/09/26 16:16:15;;;;;;;12.85;2.70;;;;;;;15.11;63.43;95148.97;5054481;28;20504;-76
2022/09/26 16:18:46;;;;;;;14.82;2.30;;;;;;;15.08;65.21;95149.69;5052259;28;20163;-75
2022/09/26 16:21:19;;;;;;;19.95;3.10;;;;;;;15.02;65.89;95146.50;5052499;28;20056;-75
2022/09/26 16:23:48;;;;;;;19.15;3.20;;;;;;;14.99;66.87;95141.00;5060501;28;20492;-75
2022/09/26 16:26:30;;;;;;;16.45;3.05;;;;;;;14.92;67.72;95140.91;5072135;28;20059;-76
2022/09/26 16:28:59;;;;;;;15.82;3.00;;;;;;;14.85;68.02;95136.16;5074285;28;20084;-76
2022/09/26 16:31:33;;;;;;;30.83;4.63;;;;;;;14.81;69.24;95141.59;5073354;28;20059;-76
2022/09/26 16:34:00;;;;;;;25.58;4.35;;;;;;;14.77;70.38;95131.75;5071238;28;20053;-77
2022/09/26 16:36:28;;;;;;;30.38;4.65;;;;;;;14.71;70.87;95146.94;5070774;28;20049;-75
2022/09/26 16:38:57;;;;;;;21.83;4.18;;;;;;;14.65;70.00;95145.69;5071091;28;20044;-76
2022/09/26 16:41:29;;;;;;;22.17;4.32;;;;;;;14.53;69.31;95142.03;5070828;28;20110;-75
2022/09/26 16:44:00;;;;;;;26.60;5.13;;;;;;;14.43;69.11;95139.94;5070618;28;20491;-77
2022/09/26 16:46:33;;;;;;;15.25;3.72;;;;;;;14.35;70.22;95130.84;5070925;28;20060;-76
2022/09/26 16:49:04;;;;;;;26.90;4.53;;;;;;;14.28;71.55;95133.47;5070557;28;20050;-76
2022/09/26 16:51:32;;;;;;;29.10;4.82;;;;;;;14.22;72.64;95125.97;5069710;28;20052;-76
2022/09/26 16:54:18;;;;;;;32.95;4.68;;;;;;;14.06;72.56;95126.94;5069225;28;20076;-76
2022/09/26 16:56:45;;;;;;;22.20;4.10;;;;;;;14.03;73.07;95137.81;5071538;28;20059;-76
2022/09/26 16:59:17;;;;;;;30.52;4.65;;;;;;;14.00;73.68;95133.09;5070349;28;20052;-77
2022/09/26 17:01:53;;;;;;;24.48;4.07;;;;;;;13.96;74.12;95135.00;5061678;28;20049;-76
2022/09/26 17:04:23;;;;;;;23.23;3.83;;;;;;;13.91;74.06;95138.03;5050890;28;20040;-77
2022/09/26 17:06:50;;;;;;;22.35;4.47;;;;;;;13.85;74.23;95132.09;5049833;28;20049;-76
2022/09/26 17:09:18;;;;;;;21.60;4.97;;;;;;;13.80;74.72;95124.22;5048698;28;20049;-74
2022/09/26 17:11:47;;;;;;;33.17;5.45;;;;;;;13.67;74.43;95123.59;5048775;28;20049;-76
2022/09/26 17:14:18;;;;;;;30.00;5.13;;;;;;;13.64;74.93;95118.88;5051535;28;20040;-75
2022/09/26 17:16:45;;;;;;;27.33;4.82;;;;;;;13.57;75.15;95125.03;5064780;28;20044;-74
2022/09/26 17:19:14;;;;;;;24.33;4.75;;;;;;;13.51;75.33;95123.75;5069090;28;20051;-74
2022/09/26 17:21:41;;;;;;;23.13;4.45;;;;;;;13.47;75.00;95125.66;5063264;28;20060;-75
2022/09/26 17:24:13;;;;;;;29.60;5.32;;;;;;;13.41;75.46;95127.09;5057082;28;20131;-75
2022/09/26 17:26:42;;;;;;;26.88;5.53;;;;;;;13.36;75.62;95129.34;5069501;28;20048;-74
2022/09/26 17:29:17;;;;;;;21.02;5.20;;;;;;;13.28;75.66;95123.78;5072786;28;20048;-75
2022/09/26 17:31:44;;;;;;;19.00;4.95;;;;;;;13.21;75.10;95129.13;5063909;28;20685;-76
2022/09/26 17:34:12;;;;;;;21.33;4.78;;;;;;;13.13;74.33;95132.84;5057155;28;20045;-75
2022/09/26 17:36:43;;;;;;;15.38;3.97;;;;;;;13.06;74.91;95132.75;5073393;28;20456;-75
2022/09/26 17:39:17;;;;;;;25.45;5.03;;;;;;;13.00;75.36;95134.19;5073226;28;20424;-75
2022/09/26 17:41:43;;;;;;;24.65;5.10;;;;;;;12.93;75.39;95131.31;5072694;28;20087;-76
2022/09/26 17:44:10;;;;;;;19.65;4.75;;;;;;;12.85;75.63;95132.34;5072562;28;20056;-75
2022/09/26 17:46:41;;;;;;;18.60;4.10;;;;;;;12.77;74.97;95132.19;5072097;28;20048;-74
2022/09/26 17:49:13;;;;;;;20.83;4.38;;;;;;;12.71;74.92;95133.66;5072765;28;20076;-74
2022/09/26 17:51:41;;;;;;;21.45;4.60;;;;;;;12.66;75.15;95135.88;5066865;28;20087;-77
2022/09/26 17:54:14;;;;;;;27.05;5.32;;;;;;;12.63;75.51;95131.13;5053882;28;20624;-77
2022/09/26 17:56:41;;;;;;;32.90;7.20;;;;;;;12.58;75.57;95139.63;5052594;28;20421;-75
2022/09/26 17:59:18;;;;;;;31.55;9.10;;;;;;;12.53;75.99;95132.53;5052365;28;20037;-75
2022/09/26 18:01:48;;;;;;;38.83;9.30;;;;;;;12.49;76.30;95137.13;5052354;28;20057;-75
2022/09/26 18:04:16;;;;;;;39.92;9.40;;;;;;;12.44;76.92;95140.16;5059020;28;20411;-77
2022/09/26 18:06:43;;;;;;;36.08;9.70;;;;;;;12.42;77.13;95136.97;5075485;28;20044;-77
2022/09/26 18:09:15;;;;;;;57.35;14.73;;;;;;;12.39;77.08;95132.25;5074697;28;20055;-76
2022/09/26 18:11:43;;;;;;;44.35;13.27;;;;;;;12.38;77.07;95136.13;5072102;28;20052;-77
2022/09/26 18:14:15;;;;;;;48.78;15.15;;;;;;;12.35;76.77;95131.38;5067400;28;20044;-75
2022/09/26 18:16:43;;;;;;;41.10;12.55;;;;;;;12.33;76.14;95134.47;5052996;28;20060;-76
2022/09/26 18:19:11;;;;;;;42.65;13.02;;;;;;;12.34;76.49;95135.25;5071225;28;20044;-77
2022/09/26 18:21:39;;;;;;;50.13;14.75;;;;;;;12.35;76.57;95134.09;5074751;28;20080;-77
2022/09/26 18:24:09;;;;;;;38.72;11.88;;;;;;;12.30;76.63;95129.72;5070453;28;20048;-79
2022/09/26 18:26:40;;;;;;;19.75;6.40;;;;;;;12.26;74.98;95140.53;5054093;28;20056;-77
2022/09/26 18:29:12;;;;;;;23.08;5.78;;;;;;;12.28;72.08;95142.94;5052950;28;20049;-76
2022/09/26 18:31:40;;;;;;;13.07;3.65;;;;;;;12.12;69.07;95137.53;5060552;28;20080;-77
2022/09/26 18:34:14;;;;;;;25.17;4.53;;;;;;;12.25;70.57;95144.44;5065762;28;20068;-76
2022/09/26 18:36:41;;;;;;;18.67;4.65;;;;;;;12.29;71.57;95144.50;5053719;28;20041;-77
2022/09/26 18:39:09;;;;;;;16.05;4.40;;;;;;;12.34;73.01;95135.25;5055076;28;20056;-77
2022/09/26 18:41:36;;;;;;;18.75;5.07;;;;;;;12.30;72.69;95134.38;5053953;28;20052;-78
2022/09/26 18:44:03;;;;;;;27.00;5.55;;;;;;;12.26;73.61;95132.34;5061542;28;20052;-77
2022/09/26 18:46:30;;;;;;;21.92;4.70;;;;;;;12.30;73.74;95128.91;5072183;28;20044;-77
2022/09/26 18:48:58;;;;;;;34.08;5.45;;;;;;;12.32;74.78;95132.06;5071505;28;20078;-77
2022/09/26 18:51:27;;;;;;;29.00;5.55;;;;;;;12.28;75.03;95130.06;5071926;28;20049;-77
2022/09/26 18:53:53;;;;;;;28.55;5.70;;;;;;;12.24;73.49;95118.28;5070159;28;20072;-76
2022/09/26 18:59:13;;;;;;;29.10;6.22;;;;;;;12.20;71.58;95119.34;5035235;28;20052;-77
2022/09/26 19:01:41;;;;;;;34.72;6.53;;;;;;;12.28;71.79;95121.88;5061684;28;20049;-77
2022/09/26 19:04:13;;;;;;;23.50;4.55;;;;;;;12.24;69.77;95120.22;5060890;28;20044;-78
2022/09/26 19:06:44;;;;;;;31.00;5.13;;;;;;;12.30;70.77;95123.47;5072215;28;20114;-78
2022/09/26 19:09:15;;;;;;;26.27;4.38;;;;;;;12.32;70.30;95118.44;5072565;28;20053;-77
2022/09/26 19:11:42;;;;;;;33.75;5.38;;;;;;;12.22;69.17;95126.06;5071501;28;20056;-78
2022/09/26 19:14:13;;;;;;;26.75;4.07;;;;;;;12.30;70.25;95129.72;5071556;28;20056;-77
2022/09/26 19:16:40;;;;;;;24.30;4.32;;;;;;;12.32;70.77;95126.63;5074232;28;20051;-79
2022/09/26 19:19:08;;;;;;;19.52;4.30;;;;;;;12.32;71.32;95126.63;5076978;28;20056;-78
2022/09/26 19:21:36;;;;;;;27.00;5.80;;;;;;;12.27;71.09;95125.78;5069430;28;20052;-77
2022/09/26 19:24:08;;;;;;;33.17;6.25;;;;;;;12.29;70.60;95125.41;5056944;28;20048;-77
2022/09/26 19:26:38;;;;;;;23.23;4.85;;;;;;;12.32;70.37;95118.44;5071785;28;20048;-76
2022/09/26 19:29:07;;;;;;;27.65;5.55;;;;;;;12.31;70.72;95125.81;5071236;28;20055;-80
2022/09/26 19:31:34;;;;;;;22.75;5.43;;;;;;;12.29;70.24;95122.69;5070645;28;20098;-76
2022/09/26 19:34:02;;;;;;;24.42;6.60;;;;;;;12.33;70.83;95122.75;5071127;28;20056;-76
2022/09/26 19:36:29;;;;;;;22.63;5.07;;;;;;;12.25;70.67;95125.31;5071554;28;20813;-77
2022/09/26 19:38:55;;;;;;;30.95;6.65;;;;;;;12.20;69.69;95124.81;5072828;28;20055;-77
2022/09/26 19:41:26;;;;;;;21.25;4.68;;;;;;;12.22;70.33;95122.53;5069848;28;20044;-77
2022/09/26 19:43:53;;;;;;;33.05;6.97;;;;;;;12.26;71.16;95128.84;5072004;28;20052;-77
2022/09/26 19:46:24;;;;;;;29.25;7.45;;;;;;;12.28;71.42;95127.34;5071809;28;20044;-77
2022/09/26 19:48:51;;;;;;;34.72;6.32;;;;;;;12.22;71.80;95115.13;5071699;28;20052;-77
2022/09/26 19:51:17;;;;;;;24.08;5.40;;;;;;;12.08;70.77;95114.03;5071745;28;20491;-77
2022/09/26 19:53:47;;;;;;;27.48;7.05;;;;;;;12.12;70.75;95112.97;5072038;28;20059;-77
2022/09/26 19:56:13;;;;;;;30.92;6.05;;;;;;;12.12;71.57;95109.47;5071242;28;20052;-77
2022/09/26 19:58:41;;;;;;;25.40;4.90;;;;;;;12.09;71.81;95100.03;5071318;28;20053;-77
2022/09/26 20:01:15;;;;;;;39.30;5.78;;;;;;;12.07;72.55;95088.69;5067690;28;20063;-77
2022/09/26 20:03:42;;;;;;;32.63;5.38;;;;;;;12.12;72.76;95095.81;5052019;28;20053;-77
2022/09/26 20:06:14;;;;;;;28.13;4.55;;;;;;;12.15;72.56;95074.03;5069891;28;20064;-77
2022/09/26 20:08:44;;;;;;;18.88;3.95;;;;;;;12.21;74.32;95071.81;5074157;28;20048;-77
2022/09/26 20:11:11;;;;;;;27.60;5.13;;;;;;;12.19;74.85;95077.63;5070560;28;20862;-77
2022/09/26 20:16:24;;;;;;;26.55;4.53;;;;;;;12.13;74.42;95073.63;5052739;28;20056;-77
2022/09/26 20:18:54;;;;;;;29.55;5.13;;;;;;;12.10;74.41;95060.69;5058778;28;20045;-78
2022/09/26 20:21:24;;;;;;;30.83;5.53;;;;;;;12.03;74.59;95052.34;5055056;28;20047;-78
2022/09/26 20:23:51;;;;;;;23.83;4.88;;;;;;;12.06;73.43;95046.19;5073384;28;20037;-77
2022/09/26 20:26:18;;;;;;;20.77;4.93;;;;;;;11.96;72.37;95033.13;5072396;28;20048;-77
2022/09/26 20:28:45;;;;;;;28.25;5.70;;;;;;;11.92;71.94;95021.34;5071429;28;20519;-78
2022/09/26 20:31:19;;;;;;;28.27;5.60;;;;;;;11.96;72.41;95016.75;5071707;28;20051;-77
2022/09/26 20:33:50;;;;;;;23.17;5.43;;;;;;;11.95;72.67;95010.53;5072924;28;20053;-77
2022/09/26 20:36:22;;;;;;;27.25;6.22;;;;;;;11.97;73.39;95013.66;5071180;28;20048;-77
2022/09/26 20:38:50;;;;;;;37.42;6.57;;;;;;;11.89;73.89;95016.59;5070610;28;20518;-77